Terminal Aerodrome Forecast
Issued by NWS

Home | Current Version | Previous Version | Text Only | Print | Product List | Glossary On
Versions: 1 2 3 4 5 6 7 8 9 10 11 12 13 14 15
000
FTUS44 KEPZ 190500
TAFDMN
TAF
KDMN 190539Z 1906/2006 02007KT P6SM VCSH SCT060 BKN100 OVC200
     FM191100 06010KT P6SM VCTS SCT050CB BKN100 OVC250
      TEMPO 1911/1915 VRB18G28KT 6SM -TSRA BKN040CB OVC080
     FM192000 24010KT P6SM VCTS SCT050CB BKN100 OVC200
     FM200200 28010G18KT P6SM VCTS SCT050CB BKN080 OVC150
      TEMPO 2002/2006 VRB25G35KT 6SM -TSRA BKN050CB OVC100=

USA.gov is the U.S. government's official web portal to all federal, state and local government web resources and services.